Time;durP1;ratioP1;P1;durP2;ratioP2;P2;SDS_P1;SDS_P2;PMS_P1;PMS_P2;Temp;Humidity;BMP_temperature;BMP_pressure;BME280_temperature;BME280_humidity;BME280_pressure;Samples;Min_cycle;Max_cycle;Signal;HPM_P1;HPM_P2
2024/04/01 00:00:14;;;;;;;37.15;9.98;;;12.00;99.90;;;16.58;71.17;97274.56;5064592;28;20055;-77
2024/04/01 00:02:41;;;;;;;54.47;12.50;;;11.90;99.90;;;16.54;71.11;97266.16;5075795;28;20059;-78
2024/04/01 00:05:08;;;;;;;47.42;12.02;;;11.90;99.90;;;16.52;71.22;97254.16;5069698;28;20461;-79
2024/04/01 00:07:35;;;;;;;48.97;9.88;;;12.00;99.90;;;16.56;71.11;97221.09;5068480;28;20111;-78
2024/04/01 00:10:02;;;;;;;45.08;10.48;;;12.00;99.90;;;16.62;71.05;97208.94;5068832;28;20040;-78
2024/04/01 00:12:29;;;;;;;47.60;9.57;;;12.00;99.90;;;16.65;70.87;97211.22;5071420;28;20126;-79
2024/04/01 00:14:56;;;;;;;47.25;9.15;;;11.90;99.90;;;16.69;70.84;97201.91;5074532;28;20441;-79
2024/04/01 00:17:26;;;;;;;44.42;7.85;;;11.90;99.90;;;16.65;70.72;97201.47;5070028;28;20123;-79
2024/04/01 00:19:53;;;;;;;46.08;7.53;;;12.00;99.90;;;16.57;71.05;97196.31;5074293;28;20495;-78
2024/04/01 00:22:20;;;;;;;41.03;8.88;;;11.90;99.90;;;16.50;71.19;97195.41;5073990;28;20386;-79
2024/04/01 00:24:48;;;;;;;35.08;8.43;;;11.90;99.90;;;16.53;71.41;97209.03;5073111;28;20052;-79
2024/04/01 00:27:16;;;;;;;43.90;7.75;;;11.90;99.90;;;16.49;71.13;97181.41;5072390;28;20050;-78
2024/04/01 00:29:42;;;;;;;40.63;8.30;;;11.80;99.90;;;16.45;71.16;97169.59;5090970;28;20093;-79
2024/04/01 00:32:10;;;;;;;39.63;8.13;;;11.90;99.90;;;16.46;71.40;97157.22;5074056;28;20051;-79
2024/04/01 00:34:38;;;;;;;49.15;8.48;;;11.80;99.90;;;16.45;71.31;97155.56;5070416;28;20044;-78
2024/04/01 00:37:05;;;;;;;52.05;10.23;;;11.80;99.90;;;16.42;71.48;97145.38;5070767;28;20075;-78
2024/04/01 00:39:32;;;;;;;39.13;7.45;;;11.80;99.90;;;16.41;71.64;97135.81;5073294;28;20532;-78
2024/04/01 00:41:59;;;;;;;51.95;10.18;;;11.80;99.90;;;16.40;71.68;97123.66;5071185;28;20446;-77
2024/04/01 00:44:26;;;;;;;55.47;9.35;;;11.90;99.90;;;16.38;71.78;97134.38;5071110;28;20076;-77
2024/04/01 00:46:54;;;;;;;48.13;9.45;;;11.90;99.90;;;16.39;71.77;97124.66;5071759;28;20044;-78
2024/04/01 00:49:21;;;;;;;48.28;9.45;;;11.90;99.90;;;16.38;71.98;97115.09;5073715;28;20098;-77
2024/04/01 00:51:51;;;;;;;48.50;10.60;;;11.90;99.90;;;16.42;71.97;97124.25;5073632;28;20127;-78
2024/04/01 00:54:18;;;;;;;50.22;8.95;;;11.90;99.90;;;16.45;71.85;97129.97;5072336;28;20079;-78
2024/04/01 00:56:48;;;;;;;53.92;9.25;;;11.90;99.90;;;16.48;71.74;97113.75;5073487;28;20466;-78
2024/04/01 00:59:16;;;;;;;56.05;10.00;;;12.00;99.90;;;16.50;71.85;97110.88;5072722;28;20668;-78
2024/04/01 01:01:46;;;;;;;46.33;10.13;;;11.90;99.90;;;16.48;71.78;97112.91;5074902;28;20494;-78
2024/04/01 01:04:14;;;;;;;55.03;9.25;;;11.90;99.90;;;16.47;71.93;97103.34;5055041;28;20390;-78
2024/04/01 01:06:43;;;;;;;55.45;9.90;;;12.00;99.90;;;16.49;72.06;97088.16;5087179;28;20469;-78
2024/04/01 01:09:11;;;;;;;53.45;10.32;;;12.00;99.90;;;16.50;72.01;97068.63;5078321;28;20048;-79
2024/04/01 01:11:39;;;;;;;51.13;9.10;;;12.00;99.90;;;16.50;71.99;97080.00;5072850;28;20131;-78
2024/04/01 01:14:06;;;;;;;54.45;9.40;;;12.00;99.90;;;16.54;71.80;97069.88;5077993;28;20059;-78
2024/04/01 01:16:34;;;;;;;48.90;9.90;;;12.00;99.90;;;16.53;71.92;97076.97;5077490;28;20502;-78
2024/04/01 01:19:00;;;;;;;53.97;9.32;;;12.10;99.90;;;16.56;71.82;97066.06;5085142;28;20561;-79
2024/04/01 01:21:28;;;;;;;61.08;10.13;;;12.00;99.90;;;16.56;72.07;97046.78;5061865;28;20123;-78
2024/04/01 01:23:56;;;;;;;46.70;7.65;;;12.00;99.90;;;16.55;71.98;97043.31;5061717;28;20070;-78
2024/04/01 01:26:23;;;;;;;48.70;7.75;;;12.00;99.90;;;16.56;72.10;97041.50;5082573;28;20089;-79
2024/04/01 01:28:51;;;;;;;58.35;9.02;;;12.00;99.90;;;16.54;72.02;97035.53;5071791;28;20123;-79
2024/04/01 01:31:20;;;;;;;57.67;8.82;;;12.00;99.90;;;16.51;71.85;97031.47;5081826;28;20082;-78
2024/04/01 01:33:47;;;;;;;54.65;9.07;;;12.00;99.90;;;16.53;72.25;97018.09;5073500;28;20083;-78
2024/04/01 01:36:15;;;;;;;55.78;7.90;;;12.10;99.90;;;16.52;72.43;97025.19;5079712;28;20590;-78
2024/04/01 01:38:41;;;;;;;53.13;9.43;;;12.10;99.90;;;16.53;72.18;97018.09;5076961;28;20510;-78
2024/04/01 01:41:10;;;;;;;58.15;8.88;;;12.10;99.90;;;16.54;72.29;97001.22;5082649;28;20162;-79
2024/04/01 01:43:37;;;;;;;51.63;9.27;;;12.10;99.90;;;16.53;72.28;97026.00;5076706;28;20513;-78
2024/04/01 01:46:05;;;;;;;60.65;8.63;;;12.10;99.90;;;16.54;72.20;97019.69;5074175;28;20148;-78
2024/04/01 01:48:31;;;;;;;57.20;9.57;;;12.10;99.90;;;16.55;72.28;97019.53;5096500;28;20051;-79
2024/04/01 01:50:59;;;;;;;57.47;9.15;;;12.10;99.90;;;16.54;72.12;97027.63;5074967;28;20090;-78
2024/04/01 01:53:25;;;;;;;51.70;8.65;;;12.10;99.90;;;16.55;72.10;97014.25;5079666;28;20127;-78
2024/04/01 01:55:53;;;;;;;51.97;9.13;;;12.10;99.90;;;16.57;72.29;97014.06;5077074;28;20554;-79
2024/04/01 01:58:21;;;;;;;42.45;8.05;;;12.10;99.90;;;16.60;72.07;97006.53;5075479;28;20119;-78
2024/04/01 02:00:49;;;;;;;54.58;9.27;;;12.10;99.90;;;16.58;72.02;96987.44;5072003;28;20057;-79
2024/04/01 02:03:15;;;;;;;63.28;8.57;;;12.10;99.90;;;16.64;72.05;96972.63;5071395;28;20123;-78
2024/04/01 02:05:43;;;;;;;55.58;8.60;;;12.10;99.90;;;16.58;72.19;96971.59;5058935;28;20123;-79
2024/04/01 02:08:10;;;;;;;59.90;9.18;;;12.20;99.90;;;16.57;72.39;96977.06;5076359;28;20052;-79
2024/04/01 02:10:37;;;;;;;67.25;9.45;;;12.20;99.90;;;16.57;72.13;96979.72;5070515;28;20299;-78
2024/04/01 02:13:05;;;;;;;67.38;9.43;;;12.10;99.90;;;16.57;72.24;96974.44;5077124;28;20151;-78
2024/04/01 02:15:34;;;;;;;66.88;9.73;;;12.10;99.90;;;16.59;72.41;96965.31;5090130;28;20076;-79
2024/04/01 02:18:00;;;;;;;53.08;8.10;;;12.10;99.90;;;16.58;72.36;96970.78;5082323;28;20138;-78
2024/04/01 02:20:28;;;;;;;58.83;10.32;;;12.10;99.90;;;16.58;72.21;96962.84;5053209;28;20103;-79
2024/04/01 02:22:55;;;;;;;44.63;8.43;;;12.10;99.90;;;16.59;72.38;96969.78;5070037;28;20510;-79
2024/04/01 02:25:23;;;;;;;59.30;11.27;;;12.10;99.90;;;16.61;72.30;96965.09;5076218;28;20528;-78
2024/04/01 02:27:50;;;;;;;65.28;10.38;;;12.20;99.90;;;16.62;72.38;96956.19;5089253;28;20063;-78
2024/04/01 02:30:19;;;;;;;69.63;10.25;;;12.20;99.90;;;16.61;72.34;96962.47;5075068;28;20173;-79
2024/04/01 02:32:47;;;;;;;53.25;9.50;;;12.20;99.90;;;16.67;72.30;96974.06;5075458;28;20075;-79
2024/04/01 02:35:15;;;;;;;47.72;8.00;;;12.20;99.90;;;16.69;72.20;96972.88;5082521;28;20123;-79
2024/04/01 02:37:41;;;;;;;58.22;10.45;;;12.20;99.90;;;16.69;72.34;96950.91;5087848;28;20131;-79
2024/04/01 02:40:10;;;;;;;52.42;9.82;;;12.20;99.90;;;16.69;72.37;96953.56;5092566;28;20094;-78
2024/04/01 02:42:37;;;;;;;57.67;11.02;;;12.20;99.90;;;16.68;72.46;96952.75;5076470;28;20036;-79
2024/04/01 02:45:05;;;;;;;56.58;9.70;;;12.20;99.90;;;16.69;72.39;96962.31;5089935;28;20387;-79
2024/04/01 02:47:31;;;;;;;59.47;9.48;;;12.20;99.90;;;16.68;72.41;96965.94;5082866;28;20625;-78
2024/04/01 02:50:00;;;;;;;56.33;10.25;;;12.20;99.90;;;16.69;72.48;96945.63;5070512;28;20087;-78
2024/04/01 02:52:28;;;;;;;54.38;9.25;;;12.20;99.90;;;16.64;72.71;96956.78;5087403;28;20405;-78
2024/04/01 02:54:56;;;;;;;52.75;9.23;;;12.30;99.90;;;16.66;72.89;96941.56;5083266;28;20114;-79
2024/04/01 02:57:22;;;;;;;57.05;8.98;;;12.20;99.90;;;16.66;72.89;96920.44;5082684;28;20550;-79
2024/04/01 02:59:50;;;;;;;51.05;10.80;;;12.30;99.90;;;16.64;72.77;96888.09;5092317;28;20127;-78
2024/04/01 03:02:16;;;;;;;58.75;9.77;;;12.20;99.90;;;16.66;72.79;96899.31;5076111;28;20135;-79
2024/04/01 03:04:44;;;;;;;58.40;9.02;;;12.20;99.90;;;16.65;73.08;96920.63;5075938;28;20486;-79
2024/04/01 03:07:12;;;;;;;49.85;9.10;;;12.20;99.90;;;16.65;72.98;96937.28;5084026;28;20046;-78
2024/04/01 03:09:39;;;;;;;64.22;10.55;;;12.30;99.90;;;16.63;73.31;96912.88;5077920;28;20059;-79
2024/04/01 03:12:07;;;;;;;56.05;9.65;;;12.20;99.90;;;16.62;73.18;96927.13;5076154;28;20147;-79
2024/04/01 03:14:34;;;;;;;56.85;9.48;;;12.30;99.90;;;17.31;70.43;96938.19;5086848;28;20075;-78
2024/04/01 03:17:02;;;;;;;52.63;7.93;;;12.30;99.90;;;17.47;69.59;96955.50;5085885;28;20101;-80
2024/04/01 03:19:30;;;;;;;52.08;8.90;;;12.30;99.90;;;17.52;69.39;96968.91;5083411;28;20050;-78
2024/04/01 03:21:56;;;;;;;52.92;8.32;;;12.30;99.90;;;17.56;69.32;96967.50;5083394;28;20565;-79
2024/04/01 03:24:25;;;;;;;57.80;9.70;;;12.30;99.90;;;17.61;69.07;96963.25;5090512;28;20083;-79
2024/04/01 03:26:51;;;;;;;51.60;8.95;;;12.30;99.90;;;17.62;69.17;96964.03;5089560;28;20124;-79
2024/04/01 03:29:19;;;;;;;55.00;8.73;;;12.30;99.90;;;17.62;69.17;96975.44;5085987;28;20048;-79
2024/04/01 03:31:46;;;;;;;54.25;8.60;;;12.30;99.90;;;17.66;68.98;96981.16;5068398;28;20509;-79
2024/04/01 03:34:14;;;;;;;48.22;9.25;;;12.30;99.90;;;17.70;68.92;96986.84;5077039;28;20136;-79
2024/04/01 03:36:42;;;;;;;48.40;8.30;;;12.30;99.90;;;17.72;68.78;97004.13;5066394;28;20044;-79
2024/04/01 03:39:10;;;;;;;68.25;10.38;;;12.30;99.90;;;17.71;68.88;97007.00;5077098;28;20046;-78
2024/04/01 03:41:38;;;;;;;43.03;7.22;;;12.30;99.90;;;17.73;68.62;97003.13;5077061;28;20465;-79
2024/04/01 03:44:06;;;;;;;65.07;8.93;;;12.40;99.90;;;17.73;68.54;96997.84;5083824;28;20070;-78
2024/04/01 03:46:33;;;;;;;38.13;7.10;;;12.30;99.90;;;17.72;68.88;96984.81;5076849;28;20071;-78
2024/04/01 03:49:00;;;;;;;52.40;8.88;;;12.30;99.90;;;17.72;68.73;96976.88;5088798;28;20089;-78
2024/04/01 03:51:27;;;;;;;45.72;7.97;;;12.40;99.90;;;17.71;68.83;96941.69;5074288;28;20051;-78
2024/04/01 03:53:54;;;;;;;47.28;7.93;;;12.40;99.90;;;17.68;68.61;96888.34;5082883;28;20040;-78
2024/04/01 03:56:21;;;;;;;46.20;8.07;;;12.30;99.90;;;17.69;68.82;96913.78;5073190;28;20123;-78
2024/04/01 03:58:50;;;;;;;51.38;7.97;;;12.30;99.90;;;17.73;68.58;96965.28;5092688;28;20047;-78
2024/04/01 04:01:17;;;;;;;39.67;7.50;;;12.30;99.90;;;17.75;68.43;96976.47;5072443;28;20497;-78
2024/04/01 04:03:44;;;;;;;47.33;8.30;;;12.40;99.90;;;17.77;68.41;97001.72;5072263;28;20103;-79
2024/04/01 04:06:11;;;;;;;43.90;6.78;;;12.40;99.90;;;17.80;68.52;97019.00;5075245;28;20127;-78
2024/04/01 04:08:39;;;;;;;50.97;9.23;;;12.40;99.90;;;17.81;68.34;96989.72;5075687;28;20079;-78
2024/04/01 04:11:07;;;;;;;42.65;6.65;;;12.40;99.90;;;17.87;68.01;96957.13;5072076;28;20119;-78
2024/04/01 04:13:35;;;;;;;41.42;7.43;;;12.40;99.90;;;17.76;68.63;96933.91;5085448;28;20123;-78
2024/04/01 04:16:03;;;;;;;42.10;6.53;;;12.40;99.90;;;17.74;68.27;96941.25;5071289;28;20076;-78
2024/04/01 04:18:31;;;;;;;45.80;5.47;;;12.40;99.90;;;17.74;68.14;96941.25;5090745;28;20657;-79
2024/04/01 04:20:57;;;;;;;47.08;7.35;;;12.40;99.90;;;17.81;68.07;96942.06;5066044;28;20472;-79
2024/04/01 04:23:26;;;;;;;45.38;6.50;;;12.40;99.90;;;17.83;67.98;96929.44;5073059;28;20123;-78
2024/04/01 04:25:53;;;;;;;37.00;6.18;;;12.40;99.90;;;17.90;67.65;96953.25;5072908;28;20052;-78
2024/04/01 04:28:21;;;;;;;37.80;6.47;;;12.40;99.90;;;17.96;67.36;96986.81;5076047;28;20631;-78
2024/04/01 04:30:48;;;;;;;29.88;5.45;;;12.40;99.90;;;18.08;66.53;97017.75;5073791;28;20503;-78
2024/04/01 04:33:17;;;;;;;34.00;5.60;;;12.40;99.90;;;18.13;66.71;97003.91;5080919;28;20397;-78
2024/04/01 04:35:44;;;;;;;36.03;5.47;;;12.40;99.90;;;18.04;66.60;96982.13;5073740;28;20147;-79
2024/04/01 04:38:11;;;;;;;30.02;5.68;;;12.40;99.90;;;18.06;66.60;96981.91;5070424;28;20454;-79
2024/04/01 04:40:38;;;;;;;30.67;5.18;;;12.40;99.90;;;18.07;66.30;96954.44;5074063;28;20044;-78
2024/04/01 04:43:05;;;;;;;29.73;4.65;;;12.40;99.90;;;18.08;66.00;96967.44;5057194;28;20040;-78
2024/04/01 04:45:32;;;;;;;26.13;4.65;;;12.40;99.90;;;18.11;65.99;96943.19;5090640;28;20044;-78
2024/04/01 04:48:00;;;;;;;22.92;4.28;;;12.40;99.90;;;18.10;65.84;96917.75;5074225;28;20128;-78
2024/04/01 04:50:28;;;;;;;37.55;5.05;;;12.40;99.90;;;18.09;65.83;96942.59;5075874;28;20114;-78
2024/04/01 04:52:55;;;;;;;26.88;4.68;;;12.40;99.90;;;18.12;65.71;96971.31;5078633;28;20532;-78
2024/04/01 04:55:22;;;;;;;29.02;5.68;;;12.40;99.90;;;18.17;65.47;96960.09;5075447;28;20040;-78
2024/04/01 04:57:50;;;;;;;26.90;3.85;;;12.40;99.90;;;18.17;65.25;97006.97;5077037;28;20575;-78
2024/04/01 05:00:23;;;;;;;28.45;4.75;;;12.40;99.90;;;18.22;65.10;97009.78;5070814;28;20040;-78
2024/04/01 05:02:51;;;;;;;28.45;5.43;;;12.40;99.90;;;18.20;65.20;96961.53;5054125;28;20123;-78
2024/04/01 05:05:18;;;;;;;32.42;6.00;;;12.40;99.90;;;18.17;65.24;96941.56;5071826;28;20115;-78
2024/04/01 05:07:49;;;;;;;29.58;5.32;;;12.40;99.90;;;18.14;65.54;96966.59;5073241;28;20570;-78
2024/04/01 05:10:16;;;;;;;28.13;4.72;;;12.30;99.90;;;18.17;65.36;97004.31;5070064;28;20044;-77
2024/04/01 05:12:43;;;;;;;36.92;6.03;;;12.40;99.90;;;18.26;65.24;97026.88;5075149;28;20083;-79
2024/04/01 05:15:10;;;;;;;34.08;4.82;;;12.40;99.90;;;18.31;64.97;97005.91;5076851;28;20115;-79
2024/04/01 05:17:38;;;;;;;23.58;4.20;;;12.40;99.90;;;18.13;65.43;97004.72;5088634;28;20490;-78
2024/04/01 05:20:05;;;;;;;36.10;5.03;;;12.40;99.90;;;18.06;65.78;97037.53;5081828;28;20076;-78
2024/04/01 05:22:33;;;;;;;34.25;5.47;;;12.40;99.90;;;18.03;66.25;97052.00;5065443;28;20055;-78
2024/04/01 05:25:01;;;;;;;38.00;6.50;;;12.40;99.90;;;18.01;66.00;97019.59;5077507;28;20072;-78
2024/04/01 05:27:28;;;;;;;35.38;4.75;;;12.40;99.90;;;18.00;66.40;97039.16;5083741;28;20413;-78
2024/04/01 05:30:03;;;;;;;31.33;4.97;;;12.40;99.90;;;18.12;65.45;97040.16;5082956;28;20048;-79
2024/04/01 05:32:31;;;;;;;33.83;5.85;;;12.40;99.90;;;18.42;64.49;97023.78;5075591;28;20472;-78
2024/04/01 05:34:57;;;;;;;31.38;6.03;;;12.40;99.90;;;18.48;64.18;97004.41;5051878;28;20072;-77
2024/04/01 05:37:25;;;;;;;35.80;7.03;;;12.40;99.90;;;18.49;64.06;97009.50;5074467;28;20213;-78
2024/04/01 05:39:52;;;;;;;35.67;6.10;;;12.40;99.90;;;18.54;64.21;96999.13;5064035;28;20124;-78
2024/04/01 05:42:22;;;;;;;43.13;6.63;;;12.40;99.90;;;18.64;63.62;97006.63;5082509;28;20049;-78
2024/04/01 05:44:50;;;;;;;36.00;6.57;;;12.40;99.90;;;18.85;62.48;97032.84;5068738;28;20045;-77
2024/04/01 05:47:17;;;;;;;36.78;5.63;;;12.40;99.90;;;18.96;62.27;97047.28;5041583;28;20090;-77
2024/04/01 05:49:44;;;;;;;36.58;7.05;;;12.40;99.90;;;19.01;62.31;97064.19;5057786;28;20139;-77
2024/04/01 05:52:11;;;;;;;39.15;5.97;;;12.40;99.90;;;17.46;67.89;97062.31;5060947;28;20398;-77
2024/04/01 05:54:38;;;;;;;37.50;4.57;;;12.40;99.90;;;17.35;68.54;97070.84;5076107;28;20068;-78
2024/04/01 05:57:06;;;;;;;42.03;5.72;;;12.40;99.90;;;17.33;68.97;97080.78;5067268;28;20097;-80
2024/04/01 05:59:34;;;;;;;39.00;6.13;;;12.40;99.90;;;17.35;68.80;97078.78;5053886;28;20068;-78
2024/04/01 06:02:01;;;;;;;40.10;6.47;;;12.40;99.90;;;17.34;69.10;97080.59;5055614;28;20072;-78
2024/04/01 06:04:28;;;;;;;37.83;6.63;;;12.50;99.90;;;17.32;69.36;97074.69;5059971;28;20048;-77
2024/04/01 06:06:55;;;;;;;42.13;8.05;;;12.50;99.90;;;17.33;69.43;97072.84;5057014;28;20044;-78
2024/04/01 06:09:22;;;;;;;36.83;6.47;;;12.50;99.90;;;17.36;69.24;97083.03;5064557;28;20052;-78
2024/04/01 06:11:49;;;;;;;44.95;7.72;;;12.50;99.90;;;17.35;69.38;97078.78;5057613;28;20119;-77
2024/04/01 06:14:16;;;;;;;45.85;7.18;;;12.50;99.90;;;17.35;69.57;97076.13;5066874;28;20116;-77
2024/04/01 06:16:45;;;;;;;46.67;8.30;;;12.60;99.90;;;17.39;69.54;97064.94;5062318;28;20469;-78
2024/04/01 06:19:11;;;;;;;39.95;7.65;;;12.60;99.90;;;17.38;69.40;97054.56;5060679;28;20072;-78
2024/04/01 06:21:39;;;;;;;34.40;6.55;;;12.60;99.90;;;17.39;69.53;97072.88;5059062;28;20095;-78
2024/04/01 06:24:06;;;;;;;37.25;6.57;;;12.60;99.90;;;17.39;69.49;97064.94;5035575;28;20079;-79
2024/04/01 06:26:34;;;;;;;44.17;6.47;;;12.60;99.90;;;17.38;69.18;97075.72;5067260;28;20537;-78
2024/04/01 06:29:00;;;;;;;31.33;5.88;;;12.60;99.90;;;17.38;69.27;97086.31;5070820;28;20463;-78
2024/04/01 06:31:28;;;;;;;31.98;5.53;;;12.60;99.90;;;17.38;68.87;97096.88;5056770;28;20048;-77
2024/04/01 06:33:56;;;;;;;39.72;5.75;;;12.70;99.90;;;17.38;68.75;97094.25;5059894;28;20556;-78
2024/04/01 06:36:24;;;;;;;25.63;6.28;;;12.70;99.90;;;17.40;68.49;97095.66;5075348;28;20044;-77
2024/04/01 06:38:51;;;;;;;29.80;4.75;;;12.70;99.90;;;17.41;68.34;97109.72;5077866;28;20123;-78
2024/04/01 06:41:18;;;;;;;19.65;3.70;;;12.70;99.90;;;17.43;67.86;97112.97;5076328;28;20075;-77
2024/04/01 06:43:45;;;;;;;38.75;5.25;;;12.70;99.90;;;17.44;67.52;97119.88;5074826;28;20054;-78
2024/04/01 06:46:12;;;;;;;31.45;3.58;;;12.70;99.90;;;17.44;67.00;97114.59;5070829;28;20087;-78
2024/04/01 06:48:39;;;;;;;25.90;3.05;;;12.70;99.90;;;17.46;66.69;97125.78;5083040;28;20582;-76
2024/04/01 06:51:08;;;;;;;23.70;3.38;;;12.70;99.90;;;17.50;66.33;97140.25;5085806;28;20066;-77
2024/04/01 06:53:35;;;;;;;28.33;3.60;;;12.70;99.90;;;17.52;65.92;97135.56;5086339;28;20059;-78
2024/04/01 06:56:03;;;;;;;26.92;4.40;;;12.70;99.90;;;17.55;65.74;97121.97;5081734;28;20050;-78
2024/04/01 06:58:29;;;;;;;21.25;3.35;;;12.80;99.90;;;17.55;65.21;97145.78;5082526;28;20413;-78
2024/04/01 07:00:57;;;;;;;17.05;3.00;;;12.80;99.90;;;17.60;65.10;97140.72;5082787;28;20120;-78
2024/04/01 07:03:23;;;;;;;16.10;2.88;;;12.90;99.90;;;17.62;64.55;97150.06;5098526;28;20048;-77
2024/04/01 07:05:51;;;;;;;13.15;1.60;;;12.90;99.90;;;17.62;63.98;97143.97;5079559;28;20055;-77
2024/04/01 07:08:19;;;;;;;9.43;1.55;;;13.00;99.90;;;17.62;62.99;97128.09;5080854;28;20040;-78
2024/04/01 07:10:46;;;;;;;13.10;1.70;;;12.90;99.90;;;17.61;62.69;97137.06;5077554;28;20093;-78
2024/04/01 07:13:13;;;;;;;13.18;1.98;;;13.00;99.90;;;17.67;62.65;97124.84;5065237;28;20075;-79
2024/04/01 07:15:40;;;;;;;12.38;2.10;;;13.10;99.90;;;17.75;62.55;97130.75;5075290;28;20083;-78
2024/04/01 07:18:07;;;;;;;10.95;1.42;;;13.20;99.90;;;17.84;62.16;97144.63;5065314;28;20119;-80
2024/04/01 07:20:34;;;;;;;14.90;2.05;;;13.30;99.90;;;17.90;61.90;97147.28;5069744;28;20123;-78
2024/04/01 07:23:01;;;;;;;13.57;2.17;;;13.30;99.90;;;17.94;61.48;97159.13;5070985;28;20120;-79
2024/04/01 07:25:30;;;;;;;9.88;1.95;;;13.30;99.90;;;17.96;60.80;97172.13;5076129;28;20093;-79
2024/04/01 07:27:56;;;;;;;10.52;1.85;;;13.30;99.90;;;17.95;60.72;97163.38;5068092;28;20040;-79
2024/04/01 07:30:24;;;;;;;10.70;1.67;;;13.40;99.90;;;18.01;60.39;97149.31;5065802;28;20418;-77
2024/04/01 07:32:51;;;;;;;10.82;1.63;;;13.50;99.90;;;18.08;60.08;97146.69;5074293;28;20044;-78
2024/04/01 07:35:18;;;;;;;9.88;1.55;;;13.60;99.90;;;18.18;59.77;97133.84;5091530;28;20075;-78
2024/04/01 07:37:45;;;;;;;14.60;1.75;;;13.80;99.90;;;18.20;59.46;97145.06;5074309;28;20449;-79
2024/04/01 07:40:13;;;;;;;11.32;1.75;;;13.70;99.90;;;18.21;59.44;97159.13;5067010;28;20405;-79
2024/04/01 07:42:42;;;;;;;13.95;2.10;;;13.70;99.90;;;18.22;58.95;97173.97;5074908;28;20076;-78
2024/04/01 07:45:10;;;;;;;13.98;2.15;;;13.60;99.90;;;18.20;59.11;97182.16;5062028;28;20043;-78
2024/04/01 07:47:37;;;;;;;11.93;1.42;;;13.60;99.90;;;18.20;58.87;97183.97;5071889;28;20067;-80
2024/04/01 07:50:06;;;;;;;10.60;1.30;;;13.70;99.90;;;18.18;58.94;97178.88;5087056;28;20064;-79
2024/04/01 07:52:32;;;;;;;13.50;1.67;;;13.60;99.90;;;18.25;58.99;97192.13;5069564;28;20466;-81
2024/04/01 07:55:00;;;;;;;18.33;1.58;;;13.80;99.90;;;18.38;58.24;97186.81;5064146;28;20051;-77
2024/04/01 07:57:30;;;;;;;11.10;1.50;;;14.00;99.90;;;18.41;58.40;97192.53;5052222;28;20060;-78
2024/04/01 07:59:59;;;;;;;11.50;1.85;;;14.00;99.90;;;18.52;57.92;97204.38;5091585;28;20508;-79
2024/04/01 08:02:27;;;;;;;10.18;1.10;;;14.00;99.90;;;18.55;58.34;97194.19;5074061;28;20131;-77
2024/04/01 08:04:54;;;;;;;8.15;1.42;;;14.10;99.90;;;18.59;58.18;97199.91;5076434;28;20079;-80
2024/04/01 08:07:21;;;;;;;15.80;2.40;;;14.10;99.90;;;18.61;58.22;97197.84;5082800;28;20143;-80
2024/04/01 08:09:49;;;;;;;11.98;1.88;;;14.10;99.90;;;18.69;57.99;97194.19;5091037;28;20048;-78
2024/04/01 08:12:15;;;;;;;14.60;1.67;;;14.20;99.90;;;18.72;57.59;97204.38;5071260;28;20075;-79
2024/04/01 08:14:43;;;;;;;11.25;1.20;;;14.30;99.90;;;18.71;57.22;97202.72;5053967;28;20551;-78
2024/04/01 08:17:11;;;;;;;14.60;2.35;;;14.20;99.90;;;18.70;57.47;97195.81;5070558;28;20052;-79
2024/04/01 08:19:38;;;;;;;9.25;1.52;;;14.30;99.90;;;18.68;57.22;97193.38;5072578;28;20371;-77
2024/04/01 08:22:06;;;;;;;14.13;1.60;;;14.10;99.90;;;18.64;57.12;97210.69;5061820;28;20072;-77
2024/04/01 08:24:34;;;;;;;10.70;1.55;;;14.00;99.90;;;18.62;57.11;97216.22;5059945;28;20465;-77
2024/04/01 08:27:00;;;;;;;11.52;2.13;;;14.10;99.90;;;18.65;56.90;97213.16;5068036;28;20565;-79
2024/04/01 08:29:28;;;;;;;20.83;2.28;;;14.10;99.90;;;18.65;56.86;97220.28;5076361;28;20139;-79
2024/04/01 08:31:54;;;;;;;7.68;1.75;;;14.00;99.90;;;18.63;57.33;97209.91;5073325;28;20090;-78
2024/04/01 08:34:23;;;;;;;16.85;1.85;;;13.90;99.90;;;18.63;56.95;97209.09;5072782;28;20044;-76
2024/04/01 08:36:49;;;;;;;10.70;2.05;;;14.00;99.90;;;18.64;56.75;97218.63;5072758;28;20097;-77
2024/04/01 08:39:17;;;;;;;9.80;1.60;;;14.00;99.90;;;18.65;56.46;97220.28;5086535;28;20048;-77
2024/04/01 08:41:49;;;;;;;13.98;2.47;;;13.90;99.90;;;18.54;56.14;97216.41;5073365;28;20052;-77
2024/04/01 08:44:18;;;;;;;13.18;2.40;;;13.80;99.90;;;18.53;56.85;97214.78;5065081;28;20079;-78
2024/04/01 08:46:50;;;;;;;9.10;1.52;;;13.80;99.90;;;18.57;56.57;97215.22;5075016;28;20606;-78
2024/04/01 08:49:29;;;;;;;14.02;2.22;;;13.90;99.90;;;18.54;56.60;97202.38;5075677;28;20717;-78
2024/04/01 08:52:03;;;;;;;13.70;1.98;;;13.80;99.90;;;18.54;56.68;97216.41;5074949;28;20048;-77
2024/04/01 08:54:31;;;;;;;6.45;1.23;;;13.90;99.90;;;18.56;56.22;97222.34;5072727;28;20063;-78
2024/04/01 08:56:58;;;;;;;13.32;2.05;;;13.90;99.90;;;18.57;56.56;97201.97;5076630;28;20071;-77
2024/04/01 08:59:26;;;;;;;5.88;1.23;;;13.90;99.90;;;18.59;56.32;97223.75;5080198;28;20058;-78
2024/04/01 09:01:53;;;;;;;11.57;1.55;;;14.00;99.90;;;18.56;56.18;97232.94;5074315;28;20044;-77
2024/04/01 09:04:20;;;;;;;12.15;1.80;;;13.90;99.90;;;18.54;56.44;97236.81;5073640;28;20469;-77
2024/04/01 09:06:48;;;;;;;19.45;2.38;;;13.90;99.90;;;18.58;56.29;97230.88;5074388;28;20063;-78
2024/04/01 09:09:16;;;;;;;10.45;1.90;;;14.00;99.90;;;18.63;56.36;97227.63;5089302;28;20082;-77
2024/04/01 09:11:43;;;;;;;13.23;1.63;;;14.10;99.90;;;18.70;56.37;97228.44;5074421;28;20131;-78
2024/04/01 09:14:11;;;;;;;10.38;1.50;;;14.10;99.90;;;18.75;56.52;97219.88;5072432;28;20106;-78
2024/04/01 09:16:38;;;;;;;14.60;1.90;;;14.30;99.90;;;18.81;55.83;97229.66;5095806;28;20082;-77
2024/04/01 09:19:08;;;;;;;10.45;2.28;;;14.30;99.90;;;18.83;56.02;97224.97;5073556;28;20076;-77
2024/04/01 09:21:35;;;;;;;9.75;2.20;;;14.30;99.90;;;18.81;55.93;97229.66;5071828;28;20413;-77
2024/04/01 09:24:05;;;;;;;9.60;2.25;;;14.20;99.90;;;18.78;55.79;97225.56;5069405;28;20401;-79
2024/04/01 09:26:32;;;;;;;9.40;2.00;;;14.20;99.90;;;18.81;56.05;97229.66;5061945;28;20132;-78
2024/04/01 09:29:02;;;;;;;14.48;2.28;;;14.30;99.90;;;18.85;55.94;97222.91;5055585;28;20076;-78
2024/04/01 09:31:28;;;;;;;11.80;2.45;;;14.30;99.90;;;18.86;56.20;97225.38;5074645;28;20044;-78
2024/04/01 09:33:56;;;;;;;10.73;2.00;;;14.30;99.90;;;18.87;55.84;97216.38;5075588;28;20069;-78
2024/04/01 09:36:23;;;;;;;11.80;2.42;;;14.30;99.90;;;18.88;56.29;97211.91;5074785;28;20066;-77
2024/04/01 09:38:57;;;;;;;15.40;2.22;;;14.40;99.90;;;18.86;55.96;97228.03;5073039;28;20700;-78
2024/04/01 09:41:25;;;;;;;14.18;1.80;;;14.30;99.90;;;18.89;55.78;97222.31;5076070;28;20040;-78
2024/04/01 09:43:58;;;;;;;10.38;1.90;;;14.30;99.90;;;18.88;56.14;97233.09;5070553;28;20568;-78
2024/04/01 09:46:25;;;;;;;11.05;1.73;;;14.40;99.90;;;18.91;55.94;97230.84;5074518;28;20047;-78
2024/04/01 09:48:53;;;;;;;14.65;2.20;;;14.50;99.90;;;18.96;55.95;97219.66;5084600;28;20040;-77
2024/04/01 09:51:20;;;;;;;15.88;3.35;;;14.60;99.90;;;19.03;56.19;97223.09;5074561;28;20080;-77
2024/04/01 09:53:48;;;;;;;18.83;4.28;;;14.80;99.90;;;19.15;56.19;97222.25;5076454;28;20044;-77
2024/04/01 09:57:02;;;;;;;15.10;3.55;;;14.90;99.90;;;19.20;56.12;97226.91;5076384;28;20050;-77
2024/04/01 10:00:16;;;;;;;12.43;2.72;;;14.90;99.90;;;19.28;56.19;97236.50;5039160;28;20083;-77
2024/04/01 10:03:42;;;;;;;13.93;2.72;;;15.10;99.90;;;19.33;55.58;97218.91;5054314;28;20119;-77
2024/04/01 10:07:06;;;;;;;8.15;1.75;;;15.10;99.90;;;19.47;55.13;97241.78;5063254;28;20521;-77
2024/04/01 10:10:22;;;;;;;16.98;2.78;;;15.40;99.90;;;19.64;54.88;97242.13;5075139;28;20123;-77
2024/04/01 10:14:02;;;;;;;8.20;1.58;;;15.60;99.90;;;19.77;53.92;97236.75;5019509;28;20134;-78
2024/04/01 10:17:20;;;;;;;5.40;1.48;;;15.80;99.90;;;19.89;53.22;97235.03;5018592;28;20048;-77
2024/04/01 10:20:33;;;;;;;9.18;1.48;;;16.00;99.90;;;20.16;52.91;97235.72;5076638;28;20040;-78